sensor_id;sensor_type;location;lat;lon;timestamp;temperature;humidity
19252;DHT22;9760;50.944;5.304;2022-09-12T00:01:23;14.50;99.90
19252;DHT22;9760;50.944;5.304;2022-09-12T00:03:58;14.40;99.90
19252;DHT22;9760;50.944;5.304;2022-09-12T00:06:30;14.40;99.90
19252;DHT22;9760;50.944;5.304;2022-09-12T00:08:58;14.50;99.90
19252;DHT22;9760;50.944;5.304;2022-09-12T00:11:25;14.50;99.90
19252;DHT22;9760;50.944;5.304;2022-09-12T00:13:55;14.40;99.90
19252;DHT22;9760;50.944;5.304;2022-09-12T00:16:23;14.40;99.90
19252;DHT22;9760;50.944;5.304;2022-09-12T00:18:50;14.40;99.90
19252;DHT22;9760;50.944;5.304;2022-09-12T00:21:18;14.30;99.90
19252;DHT22;9760;50.944;5.304;2022-09-12T00:23:45;14.20;99.90
19252;DHT22;9760;50.944;5.304;2022-09-12T00:26:11;14.30;99.90
19252;DHT22;9760;50.944;5.304;2022-09-12T00:28:38;14.30;99.90
19252;DHT22;9760;50.944;5.304;2022-09-12T00:31:08;14.30;99.90
19252;DHT22;9760;50.944;5.304;2022-09-12T00:33:34;14.30;99.90
19252;DHT22;9760;50.944;5.304;2022-09-12T00:36:07;14.30;99.90
19252;DHT22;9760;50.944;5.304;2022-09-12T00:38:33;14.20;99.90
19252;DHT22;9760;50.944;5.304;2022-09-12T00:41:04;14.20;99.90
19252;DHT22;9760;50.944;5.304;2022-09-12T00:46:07;14.20;99.90
19252;DHT22;9760;50.944;5.304;2022-09-12T00:51:30;14.20;99.90
19252;DHT22;9760;50.944;5.304;2022-09-12T00:53:59;14.20;99.90
19252;DHT22;9760;50.944;5.304;2022-09-12T00:56:27;14.10;99.90
19252;DHT22;9760;50.944;5.304;2022-09-12T00:59:10;14.10;99.90
19252;DHT22;9760;50.944;5.304;2022-09-12T01:01:38;14.10;99.90
19252;DHT22;9760;50.944;5.304;2022-09-12T01:04:04;14.00;99.90
19252;DHT22;9760;50.944;5.304;2022-09-12T01:06:40;14.00;99.90
19252;DHT22;9760;50.944;5.304;2022-09-12T01:09:06;14.00;99.90
19252;DHT22;9760;50.944;5.304;2022-09-12T01:11:36;13.90;99.90
19252;DHT22;9760;50.944;5.304;2022-09-12T01:14:03;13.90;99.90
19252;DHT22;9760;50.944;5.304;2022-09-12T01:16:29;14.00;99.90
19252;DHT22;9760;50.944;5.304;2022-09-12T01:19:35;14.00;99.90
19252;DHT22;9760;50.944;5.304;2022-09-12T01:22:53;14.00;99.90
19252;DHT22;9760;50.944;5.304;2022-09-12T01:28:32;13.90;99.90
19252;DHT22;9760;50.944;5.304;2022-09-12T01:31:12;13.90;99.90
19252;DHT22;9760;50.944;5.304;2022-09-12T01:39:19;13.90;99.90
19252;DHT22;9760;50.944;5.304;2022-09-12T01:52:22;13.90;99.90
19252;DHT22;9760;50.944;5.304;2022-09-12T01:55:16;13.90;99.90
19252;DHT22;9760;50.944;5.304;2022-09-12T01:57:55;13.90;99.90
19252;DHT22;9760;50.944;5.304;2022-09-12T02:00:22;13.90;99.90
19252;DHT22;9760;50.944;5.304;2022-09-12T02:02:59;13.90;99.90
19252;DHT22;9760;50.944;5.304;2022-09-12T02:05:33;13.80;99.90
19252;DHT22;9760;50.944;5.304;2022-09-12T02:08:07;13.80;99.90
19252;DHT22;9760;50.944;5.304;2022-09-12T02:10:40;13.80;99.90
19252;DHT22;9760;50.944;5.304;2022-09-12T02:13:32;13.80;99.90
19252;DHT22;9760;50.944;5.304;2022-09-12T02:16:08;13.70;99.90
19252;DHT22;9760;50.944;5.304;2022-09-12T02:18:38;13.60;99.90
19252;DHT22;9760;50.944;5.304;2022-09-12T02:21:05;13.70;99.90
19252;DHT22;9760;50.944;5.304;2022-09-12T02:23:33;13.70;99.90
19252;DHT22;9760;50.944;5.304;2022-09-12T02:26:17;13.80;99.90
19252;DHT22;9760;50.944;5.304;2022-09-12T02:28:44;13.70;99.90
19252;DHT22;9760;50.944;5.304;2022-09-12T02:38:59;13.80;99.90
19252;DHT22;9760;50.944;5.304;2022-09-12T02:41:25;13.80;99.90
19252;DHT22;9760;50.944;5.304;2022-09-12T02:43:52;13.80;99.90
19252;DHT22;9760;50.944;5.304;2022-09-12T02:46:24;13.70;99.90
19252;DHT22;9760;50.944;5.304;2022-09-12T02:48:53;13.70;99.90
19252;DHT22;9760;50.944;5.304;2022-09-12T02:51:20;13.70;99.90
19252;DHT22;9760;50.944;5.304;2022-09-12T02:53:46;13.70;99.90
19252;DHT22;9760;50.944;5.304;2022-09-12T02:56:17;13.70;99.90
19252;DHT22;9760;50.944;5.304;2022-09-12T02:58:45;13.70;99.90
19252;DHT22;9760;50.944;5.304;2022-09-12T03:01:21;13.70;99.90
19252;DHT22;9760;50.944;5.304;2022-09-12T03:04:23;13.70;99.90
19252;DHT22;9760;50.944;5.304;2022-09-12T03:09:44;13.70;99.90
19252;DHT22;9760;50.944;5.304;2022-09-12T03:23:55;13.80;99.90
19252;DHT22;9760;50.944;5.304;2022-09-12T03:28:53;13.80;99.90
19252;DHT22;9760;50.944;5.304;2022-09-12T03:31:20;13.70;99.90
19252;DHT22;9760;50.944;5.304;2022-09-12T03:33:46;13.70;99.90
19252;DHT22;9760;50.944;5.304;2022-09-12T03:36:37;13.70;99.90
19252;DHT22;9760;50.944;5.304;2022-09-12T03:39:05;13.60;99.90
19252;DHT22;9760;50.944;5.304;2022-09-12T03:41:31;13.60;99.90
19252;DHT22;9760;50.944;5.304;2022-09-12T03:43:56;13.60;99.90
19252;DHT22;9760;50.944;5.304;2022-09-12T03:46:22;13.60;99.90
19252;DHT22;9760;50.944;5.304;2022-09-12T03:48:47;13.50;99.90
19252;DHT22;9760;50.944;5.304;2022-09-12T03:51:15;13.50;99.90
19252;DHT22;9760;50.944;5.304;2022-09-12T03:53:40;13.50;99.90
19252;DHT22;9760;50.944;5.304;2022-09-12T03:56:07;13.40;99.90
19252;DHT22;9760;50.944;5.304;2022-09-12T03:58:33;13.30;99.90
19252;DHT22;9760;50.944;5.304;2022-09-12T04:01:10;13.40;99.90
19252;DHT22;9760;50.944;5.304;2022-09-12T04:03:48;13.40;99.90
19252;DHT22;9760;50.944;5.304;2022-09-12T04:06:15;13.20;99.90
19252;DHT22;9760;50.944;5.304;2022-09-12T04:08:42;13.20;99.90
19252;DHT22;9760;50.944;5.304;2022-09-12T04:11:13;13.20;99.90
19252;DHT22;9760;50.944;5.304;2022-09-12T04:13:40;13.10;99.90
19252;DHT22;9760;50.944;5.304;2022-09-12T04:16:06;13.20;99.90
19252;DHT22;9760;50.944;5.304;2022-09-12T04:18:32;13.30;99.90
19252;DHT22;9760;50.944;5.304;2022-09-12T04:21:01;13.20;99.90
19252;DHT22;9760;50.944;5.304;2022-09-12T04:23:27;13.10;99.90
19252;DHT22;9760;50.944;5.304;2022-09-12T04:25:57;13.10;99.90
19252;DHT22;9760;50.944;5.304;2022-09-12T04:28:24;13.20;99.90
19252;DHT22;9760;50.944;5.304;2022-09-12T04:30:50;13.10;99.90
19252;DHT22;9760;50.944;5.304;2022-09-12T04:33:16;13.10;99.90
19252;DHT22;9760;50.944;5.304;2022-09-12T04:35:41;13.20;99.90
19252;DHT22;9760;50.944;5.304;2022-09-12T04:38:07;13.30;99.90
19252;DHT22;9760;50.944;5.304;2022-09-12T04:40:33;13.30;99.90
19252;DHT22;9760;50.944;5.304;2022-09-12T04:42:59;13.30;99.90
19252;DHT22;9760;50.944;5.304;2022-09-12T04:45:24;13.30;99.90
19252;DHT22;9760;50.944;5.304;2022-09-12T04:47:50;13.30;99.90
19252;DHT22;9760;50.944;5.304;2022-09-12T04:50:16;13.30;99.90
19252;DHT22;9760;50.944;5.304;2022-09-12T04:52:41;13.20;99.90
19252;DHT22;9760;50.944;5.304;2022-09-12T04:55:08;13.20;99.90
19252;DHT22;9760;50.944;5.304;2022-09-12T04:57:37;13.10;99.90
19252;DHT22;9760;50.944;5.304;2022-09-12T05:00:03;13.10;99.90
19252;DHT22;9760;50.944;5.304;2022-09-12T05:02:32;13.10;99.90
19252;DHT22;9760;50.944;5.304;2022-09-12T05:04:58;13.10;99.90
19252;DHT22;9760;50.944;5.304;2022-09-12T05:07:24;13.00;99.90
19252;DHT22;9760;50.944;5.304;2022-09-12T05:09:50;13.00;99.90
19252;DHT22;9760;50.944;5.304;2022-09-12T05:12:16;13.00;99.90
19252;DHT22;9760;50.944;5.304;2022-09-12T05:14:41;13.00;99.90
19252;DHT22;9760;50.944;5.304;2022-09-12T05:17:07;13.00;99.90
19252;DHT22;9760;50.944;5.304;2022-09-12T05:19:33;12.90;99.90
19252;DHT22;9760;50.944;5.304;2022-09-12T05:21:59;12.90;99.90
19252;DHT22;9760;50.944;5.304;2022-09-12T05:24:25;12.90;99.90
19252;DHT22;9760;50.944;5.304;2022-09-12T05:26:51;13.00;99.90
19252;DHT22;9760;50.944;5.304;2022-09-12T05:29:16;13.00;99.90
19252;DHT22;9760;50.944;5.304;2022-09-12T05:31:42;13.00;99.90
19252;DHT22;9760;50.944;5.304;2022-09-12T05:34:07;13.10;99.90
19252;DHT22;9760;50.944;5.304;2022-09-12T05:36:35;13.20;99.90
19252;DHT22;9760;50.944;5.304;2022-09-12T05:39:02;13.20;99.90
19252;DHT22;9760;50.944;5.304;2022-09-12T05:41:29;13.30;99.90
19252;DHT22;9760;50.944;5.304;2022-09-12T05:43:57;13.40;99.90
19252;DHT22;9760;50.944;5.304;2022-09-12T05:46:28;13.40;99.90
19252;DHT22;9760;50.944;5.304;2022-09-12T05:48:55;13.40;99.90
19252;DHT22;9760;50.944;5.304;2022-09-12T05:51:25;13.50;99.90
19252;DHT22;9760;50.944;5.304;2022-09-12T05:53:56;13.50;99.90
19252;DHT22;9760;50.944;5.304;2022-09-12T05:56:24;13.30;99.90
19252;DHT22;9760;50.944;5.304;2022-09-12T05:59:01;13.30;99.90
19252;DHT22;9760;50.944;5.304;2022-09-12T06:01:28;13.30;99.90
19252;DHT22;9760;50.944;5.304;2022-09-12T06:03:57;13.40;99.90
19252;DHT22;9760;50.944;5.304;2022-09-12T06:06:26;13.40;99.90
19252;DHT22;9760;50.944;5.304;2022-09-12T06:08:55;13.40;99.90
19252;DHT22;9760;50.944;5.304;2022-09-12T06:11:24;13.60;99.90
19252;DHT22;9760;50.944;5.304;2022-09-12T06:13:51;13.70;99.90
19252;DHT22;9760;50.944;5.304;2022-09-12T06:16:24;13.90;99.90
19252;DHT22;9760;50.944;5.304;2022-09-12T06:19:17;14.00;99.90
19252;DHT22;9760;50.944;5.304;2022-09-12T06:21:44;13.90;99.90
19252;DHT22;9760;50.944;5.304;2022-09-12T06:24:10;13.90;99.90
19252;DHT22;9760;50.944;5.304;2022-09-12T06:26:36;13.90;99.90
19252;DHT22;9760;50.944;5.304;2022-09-12T06:29:02;14.00;99.90
19252;DHT22;9760;50.944;5.304;2022-09-12T06:31:31;14.00;99.90
19252;DHT22;9760;50.944;5.304;2022-09-12T06:34:00;14.10;99.90
19252;DHT22;9760;50.944;5.304;2022-09-12T06:36:29;14.20;99.90
19252;DHT22;9760;50.944;5.304;2022-09-12T06:39:00;14.20;99.90
19252;DHT22;9760;50.944;5.304;2022-09-12T06:41:26;14.20;99.90
19252;DHT22;9760;50.944;5.304;2022-09-12T06:43:52;14.30;99.90
19252;DHT22;9760;50.944;5.304;2022-09-12T06:46:18;14.30;99.90
19252;DHT22;9760;50.944;5.304;2022-09-12T06:48:44;14.30;99.90
19252;DHT22;9760;50.944;5.304;2022-09-12T06:51:12;14.40;99.90
19252;DHT22;9760;50.944;5.304;2022-09-12T06:53:38;14.30;99.90
19252;DHT22;9760;50.944;5.304;2022-09-12T06:56:10;14.40;99.90
19252;DHT22;9760;50.944;5.304;2022-09-12T06:58:36;14.50;99.90
19252;DHT22;9760;50.944;5.304;2022-09-12T07:01:11;14.50;99.90
19252;DHT22;9760;50.944;5.304;2022-09-12T07:03:37;14.60;99.90
19252;DHT22;9760;50.944;5.304;2022-09-12T07:06:05;14.70;99.90
19252;DHT22;9760;50.944;5.304;2022-09-12T07:08:31;14.70;99.90
19252;DHT22;9760;50.944;5.304;2022-09-12T07:10:59;14.90;99.90
19252;DHT22;9760;50.944;5.304;2022-09-12T07:13:32;15.00;99.90
19252;DHT22;9760;50.944;5.304;2022-09-12T07:16:00;15.00;99.90
19252;DHT22;9760;50.944;5.304;2022-09-12T07:18:26;15.00;99.90
19252;DHT22;9760;50.944;5.304;2022-09-12T07:20:53;15.20;99.90
19252;DHT22;9760;50.944;5.304;2022-09-12T07:23:19;15.30;99.90
19252;DHT22;9760;50.944;5.304;2022-09-12T07:25:51;15.50;99.90
19252;DHT22;9760;50.944;5.304;2022-09-12T07:28:18;15.60;99.90
19252;DHT22;9760;50.944;5.304;2022-09-12T07:30:43;15.70;99.90
19252;DHT22;9760;50.944;5.304;2022-09-12T07:33:09;15.90;99.90
19252;DHT22;9760;50.944;5.304;2022-09-12T07:35:34;16.10;99.90
19252;DHT22;9760;50.944;5.304;2022-09-12T07:38:01;16.20;99.90
19252;DHT22;9760;50.944;5.304;2022-09-12T07:40:27;16.30;99.90
19252;DHT22;9760;50.944;5.304;2022-09-12T07:42:53;16.30;99.90
19252;DHT22;9760;50.944;5.304;2022-09-12T07:45:18;16.40;99.90
19252;DHT22;9760;50.944;5.304;2022-09-12T07:47:44;16.50;99.90
19252;DHT22;9760;50.944;5.304;2022-09-12T07:50:09;16.70;99.90
19252;DHT22;9760;50.944;5.304;2022-09-12T07:52:35;16.90;99.90
19252;DHT22;9760;50.944;5.304;2022-09-12T07:55:01;17.10;99.90
19252;DHT22;9760;50.944;5.304;2022-09-12T07:57:27;17.20;99.90
19252;DHT22;9760;50.944;5.304;2022-09-12T07:59:53;17.30;99.90
19252;DHT22;9760;50.944;5.304;2022-09-12T08:02:19;17.30;99.90
19252;DHT22;9760;50.944;5.304;2022-09-12T08:04:46;17.50;99.90
19252;DHT22;9760;50.944;5.304;2022-09-12T08:07:11;17.60;99.90
19252;DHT22;9760;50.944;5.304;2022-09-12T08:09:37;17.80;99.90
19252;DHT22;9760;50.944;5.304;2022-09-12T08:12:03;17.90;99.90
19252;DHT22;9760;50.944;5.304;2022-09-12T08:14:29;18.00;99.90
19252;DHT22;9760;50.944;5.304;2022-09-12T08:16:54;18.10;99.90
19252;DHT22;9760;50.944;5.304;2022-09-12T08:19:20;18.20;99.90
19252;DHT22;9760;50.944;5.304;2022-09-12T08:21:47;18.20;99.90
19252;DHT22;9760;50.944;5.304;2022-09-12T08:24:13;18.30;99.90
19252;DHT22;9760;50.944;5.304;2022-09-12T08:26:38;18.50;99.90
19252;DHT22;9760;50.944;5.304;2022-09-12T08:29:04;18.60;99.90
19252;DHT22;9760;50.944;5.304;2022-09-12T08:31:30;18.80;99.90
19252;DHT22;9760;50.944;5.304;2022-09-12T08:34:02;18.90;99.90
19252;DHT22;9760;50.944;5.304;2022-09-12T08:36:29;19.10;99.90
19252;DHT22;9760;50.944;5.304;2022-09-12T08:38:57;19.30;99.90
19252;DHT22;9760;50.944;5.304;2022-09-12T08:44:18;19.50;99.90
19252;DHT22;9760;50.944;5.304;2022-09-12T08:55:21;19.90;99.90
19252;DHT22;9760;50.944;5.304;2022-09-12T08:57:47;20.00;99.90
19252;DHT22;9760;50.944;5.304;2022-09-12T09:00:13;20.10;99.90
19252;DHT22;9760;50.944;5.304;2022-09-12T09:05:40;20.20;99.90
19252;DHT22;9760;50.944;5.304;2022-09-12T09:08:19;20.20;99.90
19252;DHT22;9760;50.944;5.304;2022-09-12T09:13:36;20.20;99.90
19252;DHT22;9760;50.944;5.304;2022-09-12T09:18:57;20.40;99.90
19252;DHT22;9760;50.944;5.304;2022-09-12T09:21:59;20.70;99.90
19252;DHT22;9760;50.944;5.304;2022-09-12T09:24:35;20.80;99.90
19252;DHT22;9760;50.944;5.304;2022-09-12T09:27:10;21.00;99.90
19252;DHT22;9760;50.944;5.304;2022-09-12T09:29:43;21.10;99.90
19252;DHT22;9760;50.944;5.304;2022-09-12T09:32:16;21.10;99.90
19252;DHT22;9760;50.944;5.304;2022-09-12T09:34:43;21.20;99.90
19252;DHT22;9760;50.944;5.304;2022-09-12T09:37:41;21.30;99.90
19252;DHT22;9760;50.944;5.304;2022-09-12T09:42:55;21.40;99.90
19252;DHT22;9760;50.944;5.304;2022-09-12T09:45:24;21.50;99.90
19252;DHT22;9760;50.944;5.304;2022-09-12T09:50:32;21.80;99.90
19252;DHT22;9760;50.944;5.304;2022-09-12T09:52:59;21.90;99.90
19252;DHT22;9760;50.944;5.304;2022-09-12T09:55:33;21.80;99.90
19252;DHT22;9760;50.944;5.304;2022-09-12T09:58:03;21.90;99.90
19252;DHT22;9760;50.944;5.304;2022-09-12T10:00:32;21.90;99.90
19252;DHT22;9760;50.944;5.304;2022-09-12T10:03:00;21.80;99.90
19252;DHT22;9760;50.944;5.304;2022-09-12T10:05:27;22.10;99.90
19252;DHT22;9760;50.944;5.304;2022-09-12T10:07:53;22.30;99.90
19252;DHT22;9760;50.944;5.304;2022-09-12T10:10:20;22.50;99.90
19252;DHT22;9760;50.944;5.304;2022-09-12T10:12:49;22.70;99.90
19252;DHT22;9760;50.944;5.304;2022-09-12T10:17:47;23.00;99.90
19252;DHT22;9760;50.944;5.304;2022-09-12T10:23:34;23.20;99.90
19252;DHT22;9760;50.944;5.304;2022-09-12T10:26:10;23.70;99.90
19252;DHT22;9760;50.944;5.304;2022-09-12T10:28:44;24.20;99.90
19252;DHT22;9760;50.944;5.304;2022-09-12T10:31:15;25.10;99.90
19252;DHT22;9760;50.944;5.304;2022-09-12T10:33:48;25.80;99.90
19252;DHT22;9760;50.944;5.304;2022-09-12T10:36:19;26.20;99.90
19252;DHT22;9760;50.944;5.304;2022-09-12T10:38:50;26.70;99.90
19252;DHT22;9760;50.944;5.304;2022-09-12T10:41:16;26.70;99.90
19252;DHT22;9760;50.944;5.304;2022-09-12T10:43:42;26.60;99.90
19252;DHT22;9760;50.944;5.304;2022-09-12T10:48:46;26.70;99.90
19252;DHT22;9760;50.944;5.304;2022-09-12T10:54:01;27.70;99.90
19252;DHT22;9760;50.944;5.304;2022-09-12T10:56:31;27.20;99.90
19252;DHT22;9760;50.944;5.304;2022-09-12T11:08:25;27.30;99.90
19252;DHT22;9760;50.944;5.304;2022-09-12T11:10:58;27.00;99.90
19252;DHT22;9760;50.944;5.304;2022-09-12T11:19:23;27.90;99.90
19252;DHT22;9760;50.944;5.304;2022-09-12T11:22:32;26.90;99.90
19252;DHT22;9760;50.944;5.304;2022-09-12T11:25:34;25.60;99.90
19252;DHT22;9760;50.944;5.304;2022-09-12T11:33:39;25.00;99.90
19252;DHT22;9760;50.944;5.304;2022-09-12T11:36:16;25.20;99.90
19252;DHT22;9760;50.944;5.304;2022-09-12T11:38:50;25.20;99.90
19252;DHT22;9760;50.944;5.304;2022-09-12T11:41:19;25.00;99.90
19252;DHT22;9760;50.944;5.304;2022-09-12T11:46:24;24.30;99.90
19252;DHT22;9760;50.944;5.304;2022-09-12T11:48:58;24.00;99.90
19252;DHT22;9760;50.944;5.304;2022-09-12T12:08:07;23.80;99.90
19252;DHT22;9760;50.944;5.304;2022-09-12T12:10:40;23.80;99.90
19252;DHT22;9760;50.944;5.304;2022-09-12T12:13:20;23.90;99.90
19252;DHT22;9760;50.944;5.304;2022-09-12T12:16:07;23.90;99.90
19252;DHT22;9760;50.944;5.304;2022-09-12T12:18:38;24.00;99.90
19252;DHT22;9760;50.944;5.304;2022-09-12T12:21:43;24.10;99.90
19252;DHT22;9760;50.944;5.304;2022-09-12T12:24:22;24.10;99.90
19252;DHT22;9760;50.944;5.304;2022-09-12T12:34:43;24.20;99.90
19252;DHT22;9760;50.944;5.304;2022-09-12T12:47:41;24.40;99.90
19252;DHT22;9760;50.944;5.304;2022-09-12T12:50:21;24.60;99.90
19252;DHT22;9760;50.944;5.304;2022-09-12T12:55:51;24.40;99.90
19252;DHT22;9760;50.944;5.304;2022-09-12T13:00:46;24.40;99.90
19252;DHT22;9760;50.944;5.304;2022-09-12T13:03:42;24.50;99.90
19252;DHT22;9760;50.944;5.304;2022-09-12T13:09:43;24.70;99.90
19252;DHT22;9760;50.944;5.304;2022-09-12T13:12:01;24.40;99.90
19252;DHT22;9760;50.944;5.304;2022-09-12T13:14:53;24.40;99.90
19252;DHT22;9760;50.944;5.304;2022-09-12T13:22:45;24.90;99.90
19252;DHT22;9760;50.944;5.304;2022-09-12T13:28:03;25.00;99.90
19252;DHT22;9760;50.944;5.304;2022-09-12T13:30:40;25.00;99.90
19252;DHT22;9760;50.944;5.304;2022-09-12T13:33:20;25.00;99.90
19252;DHT22;9760;50.944;5.304;2022-09-12T13:36:05;24.90;99.90
19252;DHT22;9760;50.944;5.304;2022-09-12T13:38:57;25.00;99.90
19252;DHT22;9760;50.944;5.304;2022-09-12T13:44:40;25.00;99.90
19252;DHT22;9760;50.944;5.304;2022-09-12T13:47:14;24.90;99.90
19252;DHT22;9760;50.944;5.304;2022-09-12T13:49:41;25.00;99.90
19252;DHT22;9760;50.944;5.304;2022-09-12T13:52:20;25.20;99.90
19252;DHT22;9760;50.944;5.304;2022-09-12T13:54:50;25.20;99.90
19252;DHT22;9760;50.944;5.304;2022-09-12T13:57:32;25.20;99.90
19252;DHT22;9760;50.944;5.304;2022-09-12T13:59:59;25.30;99.90
19252;DHT22;9760;50.944;5.304;2022-09-12T14:02:27;25.30;99.90
19252;DHT22;9760;50.944;5.304;2022-09-12T14:04:54;25.30;99.90
19252;DHT22;9760;50.944;5.304;2022-09-12T14:07:56;25.30;99.90
19252;DHT22;9760;50.944;5.304;2022-09-12T14:10:39;25.20;99.90
19252;DHT22;9760;50.944;5.304;2022-09-12T14:13:17;25.20;99.90
19252;DHT22;9760;50.944;5.304;2022-09-12T14:15:46;25.30;99.90
19252;DHT22;9760;50.944;5.304;2022-09-12T14:18:25;25.30;99.90
19252;DHT22;9760;50.944;5.304;2022-09-12T14:20:52;25.40;99.90
19252;DHT22;9760;50.944;5.304;2022-09-12T14:23:31;25.50;99.90
19252;DHT22;9760;50.944;5.304;2022-09-12T14:26:01;25.40;99.90
19252;DHT22;9760;50.944;5.304;2022-09-12T14:28:28;25.40;99.90
19252;DHT22;9760;50.944;5.304;2022-09-12T14:31:06;25.50;99.90
19252;DHT22;9760;50.944;5.304;2022-09-12T14:33:55;25.50;99.90
19252;DHT22;9760;50.944;5.304;2022-09-12T14:36:31;25.50;99.90
19252;DHT22;9760;50.944;5.304;2022-09-12T14:39:02;25.60;99.90
19252;DHT22;9760;50.944;5.304;2022-09-12T14:43:59;25.60;99.90
19252;DHT22;9760;50.944;5.304;2022-09-12T14:46:35;25.60;99.90
19252;DHT22;9760;50.944;5.304;2022-09-12T14:51:55;25.60;99.90
19252;DHT22;9760;50.944;5.304;2022-09-12T14:54:33;25.50;99.90
19252;DHT22;9760;50.944;5.304;2022-09-12T14:59:38;25.60;99.90
19252;DHT22;9760;50.944;5.304;2022-09-12T15:07:32;25.80;99.90
19252;DHT22;9760;50.944;5.304;2022-09-12T15:10:00;25.60;99.90
19252;DHT22;9760;50.944;5.304;2022-09-12T15:12:26;25.50;99.90
19252;DHT22;9760;50.944;5.304;2022-09-12T15:14:52;25.60;99.90
19252;DHT22;9760;50.944;5.304;2022-09-12T15:17:17;25.80;99.90
19252;DHT22;9760;50.944;5.304;2022-09-12T15:19:43;25.70;99.90
19252;DHT22;9760;50.944;5.304;2022-09-12T15:22:11;25.60;99.90
19252;DHT22;9760;50.944;5.304;2022-09-12T15:24:37;25.50;99.90
19252;DHT22;9760;50.944;5.304;2022-09-12T15:27:09;25.50;99.90
19252;DHT22;9760;50.944;5.304;2022-09-12T15:29:36;25.50;99.90
19252;DHT22;9760;50.944;5.304;2022-09-12T15:32:01;25.60;99.90
19252;DHT22;9760;50.944;5.304;2022-09-12T15:34:27;25.60;99.90
19252;DHT22;9760;50.944;5.304;2022-09-12T15:36:52;25.50;99.90
19252;DHT22;9760;50.944;5.304;2022-09-12T15:39:18;25.50;99.90
19252;DHT22;9760;50.944;5.304;2022-09-12T15:41:44;25.60;99.90
19252;DHT22;9760;50.944;5.304;2022-09-12T15:44:11;25.70;99.90
19252;DHT22;9760;50.944;5.304;2022-09-12T15:46:37;25.60;99.90
19252;DHT22;9760;50.944;5.304;2022-09-12T15:49:03;25.70;99.90
19252;DHT22;9760;50.944;5.304;2022-09-12T15:51:28;25.50;99.90
19252;DHT22;9760;50.944;5.304;2022-09-12T15:53:54;25.40;99.90
19252;DHT22;9760;50.944;5.304;2022-09-12T15:56:20;25.50;99.90
19252;DHT22;9760;50.944;5.304;2022-09-12T15:58:47;25.70;99.90
19252;DHT22;9760;50.944;5.304;2022-09-12T16:01:15;25.90;99.90
19252;DHT22;9760;50.944;5.304;2022-09-12T16:03:41;26.60;99.90
19252;DHT22;9760;50.944;5.304;2022-09-12T16:06:07;27.90;99.90
19252;DHT22;9760;50.944;5.304;2022-09-12T16:08:34;29.50;99.90
19252;DHT22;9760;50.944;5.304;2022-09-12T16:11:09;31.00;99.90
19252;DHT22;9760;50.944;5.304;2022-09-12T16:13:36;31.80;99.90
19252;DHT22;9760;50.944;5.304;2022-09-12T16:16:02;31.30;99.90
19252;DHT22;9760;50.944;5.304;2022-09-12T16:18:28;31.90;99.90
19252;DHT22;9760;50.944;5.304;2022-09-12T16:20:55;31.40;99.90
19252;DHT22;9760;50.944;5.304;2022-09-12T16:23:27;30.70;99.90
19252;DHT22;9760;50.944;5.304;2022-09-12T16:28:22;31.40;99.90
19252;DHT22;9760;50.944;5.304;2022-09-12T16:30:58;31.70;99.90
19252;DHT22;9760;50.944;5.304;2022-09-12T16:33:25;32.30;99.90
19252;DHT22;9760;50.944;5.304;2022-09-12T16:35:51;32.80;99.90
19252;DHT22;9760;50.944;5.304;2022-09-12T16:38:22;33.40;99.90
19252;DHT22;9760;50.944;5.304;2022-09-12T16:40:48;33.30;98.80
19252;DHT22;9760;50.944;5.304;2022-09-12T16:43:14;33.30;98.10
19252;DHT22;9760;50.944;5.304;2022-09-12T16:45:43;32.80;98.30
19252;DHT22;9760;50.944;5.304;2022-09-12T16:48:08;32.40;98.20
19252;DHT22;9760;50.944;5.304;2022-09-12T16:50:34;31.00;98.70
19252;DHT22;9760;50.944;5.304;2022-09-12T16:53:00;30.10;99.90
19252;DHT22;9760;50.944;5.304;2022-09-12T16:55:26;30.00;99.90
19252;DHT22;9760;50.944;5.304;2022-09-12T16:57:52;31.00;99.90
19252;DHT22;9760;50.944;5.304;2022-09-12T17:00:21;31.20;99.80
19252;DHT22;9760;50.944;5.304;2022-09-12T17:02:47;30.80;99.90
19252;DHT22;9760;50.944;5.304;2022-09-12T17:05:13;31.00;99.90
19252;DHT22;9760;50.944;5.304;2022-09-12T17:07:40;29.90;99.90
19252;DHT22;9760;50.944;5.304;2022-09-12T17:10:06;28.80;99.90
19252;DHT22;9760;50.944;5.304;2022-09-12T17:12:32;28.10;99.90
19252;DHT22;9760;50.944;5.304;2022-09-12T17:14:58;27.50;99.90
19252;DHT22;9760;50.944;5.304;2022-09-12T17:17:24;26.90;99.90
19252;DHT22;9760;50.944;5.304;2022-09-12T17:19:50;26.70;99.90
19252;DHT22;9760;50.944;5.304;2022-09-12T17:22:15;26.40;99.90
19252;DHT22;9760;50.944;5.304;2022-09-12T17:24:41;26.20;99.90
19252;DHT22;9760;50.944;5.304;2022-09-12T17:27:07;26.00;99.90
19252;DHT22;9760;50.944;5.304;2022-09-12T17:29:32;25.90;99.90
19252;DHT22;9760;50.944;5.304;2022-09-12T17:31:59;25.70;99.90
19252;DHT22;9760;50.944;5.304;2022-09-12T17:34:25;25.50;99.90
19252;DHT22;9760;50.944;5.304;2022-09-12T17:36:50;25.30;99.90
19252;DHT22;9760;50.944;5.304;2022-09-12T17:39:17;25.10;99.90
19252;DHT22;9760;50.944;5.304;2022-09-12T17:41:43;25.00;99.90
19252;DHT22;9760;50.944;5.304;2022-09-12T17:44:11;24.90;99.90
19252;DHT22;9760;50.944;5.304;2022-09-12T17:46:37;24.80;99.90
19252;DHT22;9760;50.944;5.304;2022-09-12T17:49:06;24.60;99.90
19252;DHT22;9760;50.944;5.304;2022-09-12T17:51:32;24.40;99.90
19252;DHT22;9760;50.944;5.304;2022-09-12T17:56:30;24.00;99.90
19252;DHT22;9760;50.944;5.304;2022-09-12T17:58:57;23.90;99.90
19252;DHT22;9760;50.944;5.304;2022-09-12T18:01:24;23.80;99.90
19252;DHT22;9760;50.944;5.304;2022-09-12T18:04:08;23.70;99.90
19252;DHT22;9760;50.944;5.304;2022-09-12T18:06:35;23.60;99.90
19252;DHT22;9760;50.944;5.304;2022-09-12T18:09:02;23.50;99.90
19252;DHT22;9760;50.944;5.304;2022-09-12T18:11:28;23.40;99.90
19252;DHT22;9760;50.944;5.304;2022-09-12T18:13:54;23.30;99.90
19252;DHT22;9760;50.944;5.304;2022-09-12T18:16:19;23.10;99.90
19252;DHT22;9760;50.944;5.304;2022-09-12T18:18:45;22.80;99.90
19252;DHT22;9760;50.944;5.304;2022-09-12T18:21:11;22.70;99.90
19252;DHT22;9760;50.944;5.304;2022-09-12T18:23:37;22.50;99.90
19252;DHT22;9760;50.944;5.304;2022-09-12T18:26:05;22.40;99.90
19252;DHT22;9760;50.944;5.304;2022-09-12T18:28:36;22.40;99.90
19252;DHT22;9760;50.944;5.304;2022-09-12T18:31:02;22.40;99.90
19252;DHT22;9760;50.944;5.304;2022-09-12T18:33:28;22.40;99.90
19252;DHT22;9760;50.944;5.304;2022-09-12T18:35:54;22.30;99.90
19252;DHT22;9760;50.944;5.304;2022-09-12T18:38:19;22.10;99.90
19252;DHT22;9760;50.944;5.304;2022-09-12T18:40:45;22.10;99.90
19252;DHT22;9760;50.944;5.304;2022-09-12T18:43:10;22.00;99.90
19252;DHT22;9760;50.944;5.304;2022-09-12T18:45:36;22.00;99.90
19252;DHT22;9760;50.944;5.304;2022-09-12T18:48:02;22.00;99.90
19252;DHT22;9760;50.944;5.304;2022-09-12T18:50:30;21.90;99.90
19252;DHT22;9760;50.944;5.304;2022-09-12T18:52:58;21.90;99.90
19252;DHT22;9760;50.944;5.304;2022-09-12T18:55:23;21.80;99.90
19252;DHT22;9760;50.944;5.304;2022-09-12T18:57:49;21.80;99.90
19252;DHT22;9760;50.944;5.304;2022-09-12T19:00:16;21.70;99.90
19252;DHT22;9760;50.944;5.304;2022-09-12T19:05:12;21.50;99.90
19252;DHT22;9760;50.944;5.304;2022-09-12T19:07:37;21.40;99.90